createdAt,value
2022-08-05T00:01:50.707Z,22.20
2022-08-05T00:04:21.498Z,22.80
2022-08-05T00:06:52.064Z,23.40
2022-08-05T00:09:21.223Z,22.60
2022-08-05T00:11:55.618Z,22.40
2022-08-05T00:14:22.103Z,24.60
2022-08-05T00:16:54.027Z,28.00
2022-08-05T00:19:24.956Z,27.80
2022-08-05T00:21:54.933Z,28.20
2022-08-05T00:24:30.633Z,28.00
2022-08-05T00:26:55.138Z,27.20
2022-08-05T00:29:25.299Z,22.60
2022-08-05T00:32:12.301Z,26.20
2022-08-05T00:34:53.478Z,25.20
2022-08-05T00:37:10.880Z,26.40
2022-08-05T00:39:28.883Z,25.60
2022-08-05T00:41:59.638Z,24.40
2022-08-05T00:44:30.608Z,19.00
2022-08-05T00:47:02.103Z,24.80
2022-08-05T00:49:32.715Z,24.20
2022-08-05T00:52:01.627Z,17.60
2022-08-05T00:54:30.993Z,20.00
2022-08-05T00:57:00.158Z,22.00
2022-08-05T00:59:34.613Z,19.60
2022-08-05T01:02:00.153Z,23.80
2022-08-05T01:04:30.226Z,18.00
2022-08-05T01:06:59.601Z,21.00
2022-08-05T01:09:30.477Z,21.60
2022-08-05T01:12:04.885Z,22.60
2022-08-05T01:14:38.978Z,18.40
2022-08-05T01:17:44.217Z,22.00
2022-08-05T01:20:30.722Z,21.80
2022-08-05T01:23:15.113Z,18.20
2022-08-05T01:26:00.859Z,18.00
2022-08-05T01:28:49.440Z,19.00
2022-08-05T01:31:45.009Z,18.80
2022-08-05T01:34:16.176Z,19.80
2022-08-05T01:36:52.845Z,18.00
2022-08-05T01:39:46.750Z,18.80
2022-08-05T01:41:56.667Z,20.80
2022-08-05T01:44:34.387Z,23.00
2022-08-05T01:47:00.014Z,18.40
2022-08-05T01:50:00.330Z,20.00
2022-08-05T01:52:17.444Z,20.40
2022-08-05T01:54:46.137Z,21.60
2022-08-05T01:58:18.881Z,21.20
2022-08-05T01:59:47.253Z,21.20
2022-08-05T02:02:15.914Z,22.20
2022-08-05T02:04:49.538Z,22.00
2022-08-05T02:07:22.161Z,21.80
2022-08-05T02:09:50.099Z,24.80
2022-08-05T02:12:40.635Z,23.00
2022-08-05T02:15:12.720Z,20.60
2022-08-05T02:18:28.478Z,21.80
2022-08-05T02:20:20.483Z,21.00
2022-08-05T02:22:51.829Z,22.00
2022-08-05T02:25:32.987Z,19.40
2022-08-05T02:28:01.588Z,17.80
2022-08-05T02:30:51.828Z,21.40
2022-08-05T02:33:24.491Z,17.20
2022-08-05T02:35:59.125Z,18.60
2022-08-05T02:38:35.502Z,18.40
2022-08-05T02:41:14.745Z,20.40
2022-08-05T02:43:34.824Z,21.60
2022-08-05T02:46:06.784Z,20.40
2022-08-05T02:48:38.697Z,21.00
2022-08-05T02:51:10.681Z,23.40
2022-08-05T02:53:43.027Z,21.20
2022-08-05T02:56:15.933Z,21.60
2022-08-05T02:58:51.585Z,17.80
2022-08-05T03:01:20.121Z,18.40
2022-08-05T03:04:08.844Z,20.20
2022-08-05T03:06:56.096Z,18.20
2022-08-05T03:08:55.110Z,20.00
2022-08-05T03:11:56.296Z,16.00
2022-08-05T03:14:03.104Z,20.20
2022-08-05T03:16:29.268Z,18.20
2022-08-05T03:19:01.124Z,20.40
2022-08-05T03:21:33.198Z,19.60
2022-08-05T03:24:03.513Z,21.80
2022-08-05T03:26:32.945Z,18.00
2022-08-05T03:29:02.448Z,21.20
2022-08-05T03:31:56.107Z,18.00
2022-08-05T03:34:06.682Z,25.00
2022-08-05T03:36:37.421Z,22.40
2022-08-05T03:39:13.146Z,17.00
2022-08-05T03:41:45.384Z,14.20
2022-08-05T03:44:12.783Z,19.60
2022-08-05T03:46:43.497Z,21.20
2022-08-05T03:49:14.969Z,30.60
2022-08-05T03:52:36.558Z,23.20
2022-08-05T03:55:49.743Z,11.40
2022-08-05T03:57:16.736Z,20.80
2022-08-05T03:59:54.540Z,20.00
2022-08-05T04:02:38.796Z,20.00
2022-08-05T04:04:51.952Z,20.80
2022-08-05T04:07:25.175Z,21.00
2022-08-05T04:09:55.721Z,21.60
2022-08-05T04:12:25.041Z,21.80
2022-08-05T04:14:57.741Z,22.40
2022-08-05T04:17:36.409Z,21.80
2022-08-05T04:19:58.719Z,21.40
2022-08-05T04:22:27.874Z,22.00
2022-08-05T04:24:57.071Z,22.40
2022-08-05T04:27:41.721Z,21.80
2022-08-05T04:29:58.739Z,21.80
2022-08-05T04:32:31.947Z,22.60
2022-08-05T04:35:00.349Z,22.40
2022-08-05T04:38:01.627Z,22.60
2022-08-05T04:40:00.582Z,22.00
2022-08-05T04:42:31.334Z,21.20
2022-08-05T04:45:01.059Z,21.20
2022-08-05T04:47:31.217Z,21.00
2022-08-05T04:50:11.127Z,21.40
2022-08-05T04:52:34.188Z,19.60
2022-08-05T04:55:13.789Z,18.80
2022-08-05T04:57:37.291Z,20.80
2022-08-05T05:00:09.189Z,20.80
2022-08-05T05:02:41.827Z,20.00
2022-08-05T05:05:26.388Z,20.00
2022-08-05T05:07:40.328Z,20.40
2022-08-05T05:10:11.097Z,17.00
2022-08-05T05:12:42.179Z,18.60
2022-08-05T05:15:12.139Z,15.60
2022-08-05T05:17:55.787Z,15.60
2022-08-05T05:20:18.151Z,19.00
2022-08-05T05:22:49.190Z,18.40
2022-08-05T05:25:18.386Z,18.60
2022-08-05T05:27:48.594Z,21.00
2022-08-05T05:30:29.226Z,22.60
2022-08-05T05:32:49.758Z,20.80
2022-08-05T05:35:19.915Z,19.00
2022-08-05T05:38:01.429Z,20.20
2022-08-05T05:40:30.248Z,22.40
2022-08-05T05:43:02.104Z,21.60
2022-08-05T05:45:32.093Z,21.20
2022-08-05T05:48:06.593Z,21.00
2022-08-05T05:50:32.937Z,22.20
2022-08-05T05:53:03.314Z,24.60
2022-08-05T05:55:51.851Z,23.00
2022-08-05T05:58:05.580Z,25.20
2022-08-05T06:00:34.711Z,25.80
2022-08-05T06:03:40.672Z,23.80
2022-08-05T06:05:35.950Z,29.80
2022-08-05T06:08:05.347Z,21.20
2022-08-05T06:10:37.368Z,22.20
2022-08-05T06:13:05.781Z,21.00
2022-08-05T06:16:27.281Z,21.80
2022-08-05T06:18:05.727Z,27.40
2022-08-05T06:20:35.233Z,22.60
2022-08-05T06:23:04.736Z,22.80
2022-08-05T06:26:13.744Z,21.40
2022-08-05T06:28:12.440Z,26.60
2022-08-05T06:30:35.603Z,23.00
2022-08-05T06:33:04.705Z,21.60
2022-08-05T06:36:05.818Z,25.80
2022-08-05T06:38:11.132Z,22.60
2022-08-05T06:40:37.212Z,29.20
2022-08-05T06:43:08.232Z,29.80
2022-08-05T06:46:03.057Z,24.20
2022-08-05T06:48:47.161Z,25.20
2022-08-05T06:50:40.665Z,26.80
2022-08-05T06:53:19.666Z,23.80
2022-08-05T06:55:42.022Z,22.60
2022-08-05T06:58:30.097Z,22.60
2022-08-05T07:00:42.504Z,20.60
2022-08-05T07:03:13.552Z,20.00
2022-08-05T07:05:44.575Z,16.40
2022-08-05T07:08:15.387Z,13.20
2022-08-05T07:10:52.953Z,16.00
2022-08-05T07:13:59.153Z,17.20
2022-08-05T07:18:08.196Z,16.40
2022-08-05T07:18:52.453Z,13.40
2022-08-05T07:21:25.903Z,16.20
2022-08-05T07:23:52.967Z,15.60
2022-08-05T07:26:25.006Z,15.00
2022-08-05T07:28:52.926Z,14.80
2022-08-05T07:31:53.923Z,14.20
2022-08-05T07:33:53.460Z,12.60
2022-08-05T07:36:22.543Z,14.00
2022-08-05T07:38:54.700Z,14.20
2022-08-05T07:42:13.614Z,16.00
2022-08-05T07:43:57.073Z,18.00
2022-08-05T07:46:31.289Z,16.60
2022-08-05T07:49:05.896Z,17.20
2022-08-05T07:51:41.110Z,15.80
2022-08-05T07:54:08.446Z,17.20
2022-08-05T07:57:01.477Z,17.40
2022-08-05T07:59:11.038Z,15.80
2022-08-05T08:01:51.681Z,17.20
2022-08-05T08:04:12.192Z,18.80
2022-08-05T08:06:41.513Z,19.00
2022-08-05T08:09:12.247Z,20.20
2022-08-05T08:11:48.288Z,12.60
2022-08-05T08:14:12.390Z,17.60
2022-08-05T08:16:51.131Z,18.60
2022-08-05T08:20:10.116Z,17.40
2022-08-05T08:21:44.975Z,16.80
2022-08-05T08:24:17.170Z,12.20
2022-08-05T08:26:49.545Z,19.40
2022-08-05T08:29:29.366Z,17.20
2022-08-05T08:31:50.068Z,18.00
2022-08-05T08:34:30.886Z,16.60
2022-08-05T08:36:55.813Z,19.20
2022-08-05T08:39:23.766Z,20.00
2022-08-05T08:42:00.137Z,15.80
2022-08-05T08:45:24.013Z,18.40
2022-08-05T08:46:59.997Z,18.00
2022-08-05T08:50:12.880Z,17.60
2022-08-05T08:52:13.248Z,15.40
2022-08-05T08:54:36.950Z,18.20
2022-08-05T08:57:11.241Z,15.40
2022-08-05T08:59:47.343Z,17.80
2022-08-05T09:02:16.713Z,17.20
2022-08-05T09:04:57.892Z,18.80
2022-08-05T09:07:28.441Z,19.40
2022-08-05T09:09:50.553Z,18.40
2022-08-05T09:12:20.676Z,15.40
2022-08-05T09:14:58.318Z,17.20
2022-08-05T09:17:41.327Z,17.20
2022-08-05T09:20:01.777Z,19.80
2022-08-05T09:22:31.806Z,16.60
2022-08-05T09:25:01.637Z,18.60
2022-08-05T09:28:05.719Z,17.60
2022-08-05T09:30:16.289Z,19.20
2022-08-05T09:32:46.461Z,19.80
2022-08-05T09:35:26.465Z,20.80
2022-08-05T09:38:17.362Z,19.00
2022-08-05T09:40:52.731Z,20.20
2022-08-05T09:43:14.929Z,19.00
2022-08-05T09:46:06.253Z,20.00
2022-08-05T09:48:34.447Z,18.80
2022-08-05T09:51:15.150Z,18.20
2022-08-05T09:54:00.401Z,17.80
2022-08-05T09:56:32.617Z,18.20
2022-08-05T09:59:05.005Z,18.60
2022-08-05T10:01:41.288Z,20.60
2022-08-05T10:04:16.192Z,12.80
2022-08-05T10:06:59.270Z,17.00
2022-08-05T10:09:29.829Z,18.60
2022-08-05T10:12:30.374Z,14.80
2022-08-05T10:14:41.966Z,17.40
2022-08-05T10:17:37.177Z,16.60
2022-08-05T10:20:04.533Z,17.20
2022-08-05T10:22:29.729Z,18.80
2022-08-05T10:24:49.338Z,17.80
2022-08-05T10:27:20.362Z,16.20
2022-08-05T10:30:41.137Z,18.80
2022-08-05T10:32:54.149Z,21.00
2022-08-05T10:34:53.971Z,18.80
2022-08-05T10:37:37.155Z,11.40
2022-08-05T10:39:58.931Z,20.80
2022-08-05T10:42:34.065Z,16.60
2022-08-05T10:45:00.763Z,16.80
2022-08-05T10:47:36.500Z,14.40
2022-08-05T10:50:31.873Z,10.20
2022-08-05T10:53:00.561Z,13.40
2022-08-05T10:55:32.874Z,12.60
2022-08-05T10:58:12.063Z,12.60
2022-08-05T11:00:45.797Z,13.20
2022-08-05T11:03:24.234Z,13.00
2022-08-05T11:05:49.082Z,12.80
2022-08-05T11:08:36.546Z,11.60
2022-08-05T11:11:00.898Z,13.80
2022-08-05T11:13:40.653Z,14.40
2022-08-05T11:16:34.048Z,11.40
2022-08-05T11:20:11.120Z,13.20
2022-08-05T11:22:02.387Z,12.60
2022-08-05T11:24:32.524Z,12.00
2022-08-05T11:27:51.537Z,13.20
2022-08-05T11:30:03.921Z,14.60
2022-08-05T11:32:34.646Z,12.40
2022-08-05T11:35:05.476Z,17.00
2022-08-05T11:38:30.297Z,9.60
2022-08-05T11:40:18.826Z,13.20
2022-08-05T11:42:49.988Z,14.60
2022-08-05T11:45:26.824Z,13.20
2022-08-05T11:47:54.494Z,10.60
2022-08-05T11:50:21.548Z,12.40
2022-08-05T11:52:54.406Z,11.60
2022-08-05T11:55:21.677Z,10.40
2022-08-05T11:58:10.385Z,9.40
2022-08-05T12:00:30.990Z,13.80
2022-08-05T12:03:01.596Z,8.40
2022-08-05T12:05:36.080Z,10.60
2022-08-05T12:08:03.381Z,11.40
2022-08-05T12:10:43.567Z,12.20
2022-08-05T12:13:15.999Z,11.60
2022-08-05T12:15:38.694Z,12.60
2022-08-05T12:18:11.009Z,11.00
2022-08-05T12:20:39.178Z,10.40
2022-08-05T12:23:12.270Z,10.60
2022-08-05T12:25:56.670Z,11.60
2022-08-05T12:28:39.114Z,9.80
2022-08-05T12:31:08.200Z,10.80
2022-08-05T12:33:38.594Z,12.20
2022-08-05T12:36:09.869Z,10.80
2022-08-05T12:38:41.408Z,12.60
2022-08-05T12:41:17.793Z,13.40
2022-08-05T12:43:52.710Z,12.60
2022-08-05T12:46:28.868Z,11.20
2022-08-05T12:49:00.443Z,11.00
2022-08-05T12:52:13.117Z,13.20
2022-08-05T12:54:04.574Z,11.80
2022-08-05T12:56:37.415Z,15.40
2022-08-05T12:59:46.936Z,13.40
2022-08-05T13:02:07.569Z,13.40
2022-08-05T13:04:34.407Z,15.00
2022-08-05T13:07:10.440Z,11.40
2022-08-05T13:09:38.572Z,12.00
2022-08-05T13:12:13.217Z,11.00
2022-08-05T13:14:46.503Z,10.60
2022-08-05T13:17:34.997Z,10.00
2022-08-05T13:20:02.401Z,11.40
2022-08-05T13:22:32.735Z,12.40
2022-08-05T13:25:08.079Z,11.80
2022-08-05T13:27:43.036Z,14.60
2022-08-05T13:30:33.512Z,11.80
2022-08-05T13:32:51.938Z,10.80
2022-08-05T13:35:42.837Z,2.00
2022-08-05T13:37:55.498Z,5.00
2022-08-05T13:40:36.620Z,6.60
2022-08-05T13:42:55.715Z,5.00
2022-08-05T13:45:25.118Z,1.80
2022-08-05T13:48:08.558Z,2.00
2022-08-05T13:50:26.787Z,1.00
2022-08-05T13:52:56.270Z,2.00
2022-08-05T13:55:40.791Z,1.00
2022-08-05T13:57:56.642Z,3.80
2022-08-05T14:00:26.921Z,8.80
2022-08-05T14:02:58.028Z,13.00
2022-08-05T14:05:47.999Z,10.80
2022-08-05T14:08:05.839Z,8.00
2022-08-05T14:10:31.281Z,9.80
2022-08-05T14:13:01.253Z,8.00
2022-08-05T14:16:08.319Z,11.00
2022-08-05T14:18:03.968Z,8.20
2022-08-05T14:20:34.678Z,10.80
2022-08-05T14:23:03.984Z,9.80
2022-08-05T14:25:34.821Z,12.20
2022-08-05T14:28:06.044Z,10.60
2022-08-05T14:30:35.455Z,10.60
2022-08-05T14:33:05.383Z,11.20
2022-08-05T14:35:36.329Z,8.00
2022-08-05T14:38:05.902Z,10.80
2022-08-05T14:40:36.746Z,11.00
2022-08-05T14:43:06.698Z,11.00
2022-08-05T14:45:37.492Z,11.60
2022-08-05T14:48:08.840Z,12.00
2022-08-05T14:50:40.638Z,17.20
2022-08-05T14:53:08.930Z,12.60
2022-08-05T14:55:39.653Z,9.60
2022-08-05T14:58:13.643Z,11.80
2022-08-05T15:00:59.760Z,8.80
2022-08-05T15:03:14.149Z,7.20
2022-08-05T15:06:12.970Z,9.40
2022-08-05T15:08:17.954Z,10.60
2022-08-05T15:10:46.215Z,9.60
2022-08-05T15:13:16.259Z,9.60
2022-08-05T15:15:56.523Z,9.80
2022-08-05T15:20:53.863Z,9.80
2022-08-05T15:23:33.415Z,9.20
2022-08-05T15:26:03.119Z,11.40
2022-08-05T15:28:32.572Z,11.80
2022-08-05T15:31:03.703Z,9.40
2022-08-05T15:34:05.428Z,13.40
2022-08-05T15:36:05.937Z,13.00
2022-08-05T15:38:48.105Z,16.20
2022-08-05T15:41:23.260Z,17.80
2022-08-05T15:43:45.330Z,21.00
2022-08-05T15:46:09.559Z,25.40
2022-08-05T15:48:38.803Z,26.40
2022-08-05T15:51:09.720Z,31.00
2022-08-05T15:53:50.329Z,30.20
2022-08-05T15:56:14.384Z,29.40
2022-08-05T15:58:41.870Z,25.40
2022-08-05T16:01:16.186Z,28.80
2022-08-05T16:03:48.323Z,18.40
2022-08-05T16:06:20.117Z,14.60
2022-08-05T16:08:50.876Z,10.00
2022-08-05T16:11:21.129Z,10.40
2022-08-05T16:13:51.615Z,10.00
2022-08-05T16:16:21.347Z,12.00
2022-08-05T16:18:52.659Z,10.20
2022-08-05T16:21:59.326Z,7.40
2022-08-05T16:23:55.385Z,10.20
2022-08-05T16:26:26.610Z,7.60
2022-08-05T16:28:54.759Z,10.00
2022-08-05T16:31:24.193Z,9.60
2022-08-05T16:33:54.625Z,8.20
2022-08-05T16:36:24.147Z,10.60
2022-08-05T16:38:55.528Z,8.60
2022-08-05T16:42:13.815Z,10.60
2022-08-05T16:43:56.436Z,9.60
2022-08-05T16:46:25.829Z,12.80
2022-08-05T16:48:55.557Z,10.80
2022-08-05T16:51:30.860Z,3.40
2022-08-05T16:54:05.178Z,10.80
2022-08-05T16:56:27.910Z,10.80
2022-08-05T16:58:57.779Z,10.00
2022-08-05T17:01:27.151Z,12.00
2022-08-05T17:03:57.954Z,11.20
2022-08-05T17:06:27.101Z,10.00
2022-08-05T17:08:56.304Z,10.00
2022-08-05T17:11:26.842Z,10.40
2022-08-05T17:14:05.381Z,10.20
2022-08-05T17:16:32.822Z,10.00
2022-08-05T17:18:58.180Z,10.40
2022-08-05T17:21:36.314Z,11.60
2022-08-05T17:24:04.267Z,6.40
2022-08-05T17:26:28.874Z,13.00
2022-08-05T17:28:58.217Z,14.00
2022-08-05T17:31:56.733Z,11.60
2022-08-05T17:33:58.924Z,14.40
2022-08-05T17:36:33.989Z,11.80
2022-08-05T17:39:00.368Z,13.40
2022-08-05T17:42:19.190Z,16.20
2022-08-05T17:44:00.730Z,16.00
2022-08-05T17:46:31.779Z,13.00
2022-08-05T17:49:00.998Z,11.20
2022-08-05T17:51:30.373Z,14.80
2022-08-05T17:54:01.215Z,14.00
2022-08-05T17:56:30.327Z,14.00
2022-08-05T17:59:01.270Z,15.20
2022-08-05T18:01:49.458Z,14.00
2022-08-05T18:04:04.754Z,13.40
2022-08-05T18:06:33.149Z,13.60
2022-08-05T18:09:03.415Z,13.00
2022-08-05T18:11:33.952Z,12.40
2022-08-05T18:14:06.759Z,9.00
2022-08-05T18:16:50.956Z,12.40
2022-08-05T18:19:09.793Z,13.80
2022-08-05T18:22:08.265Z,13.80
2022-08-05T18:24:10.067Z,13.80
2022-08-05T18:26:40.853Z,13.60
2022-08-05T18:29:10.915Z,12.40
2022-08-05T18:31:43.154Z,9.60
2022-08-05T18:34:12.282Z,16.80
2022-08-05T18:36:43.639Z,10.75
2022-08-05T18:39:41.962Z,14.40
2022-08-05T18:41:55.215Z,7.80
2022-08-05T18:44:14.765Z,13.80
2022-08-05T18:46:45.593Z,12.20
2022-08-05T18:49:44.505Z,2.00
2022-08-05T18:52:33.000Z,12.00
2022-08-05T18:54:52.342Z,18.60
2022-08-05T18:57:23.985Z,17.00
2022-08-05T19:00:03.474Z,15.80
2022-08-05T19:02:28.021Z,12.40
2022-08-05T19:05:02.167Z,13.40
2022-08-05T19:07:29.678Z,13.80
2022-08-05T19:10:01.383Z,13.60
2022-08-05T19:12:32.272Z,12.00
2022-08-05T19:15:03.047Z,13.20
2022-08-05T19:17:59.445Z,14.40
2022-08-05T19:20:03.142Z,14.00
2022-08-05T19:22:32.737Z,15.20
2022-08-05T19:25:02.732Z,14.00
2022-08-05T19:27:31.818Z,13.20
2022-08-05T19:30:02.803Z,12.60
2022-08-05T19:32:32.146Z,11.20
2022-08-05T19:35:05.863Z,16.00
2022-08-05T19:37:47.073Z,12.00
2022-08-05T19:40:10.240Z,13.00
2022-08-05T19:42:36.511Z,12.20
2022-08-05T19:45:07.958Z,16.00
2022-08-05T19:47:38.158Z,13.20
2022-08-05T19:50:12.013Z,9.20
2022-08-05T19:52:38.644Z,13.40
2022-08-05T19:56:11.793Z,14.40
2022-08-05T19:57:48.901Z,12.80
2022-08-05T20:00:10.859Z,14.40
2022-08-05T20:02:41.524Z,17.20
2022-08-05T20:05:16.722Z,12.80
2022-08-05T20:07:47.899Z,13.20
2022-08-05T20:10:14.217Z,12.20
2022-08-05T20:12:49.062Z,9.40
2022-08-05T20:15:48.043Z,12.80
2022-08-05T20:17:52.668Z,14.20
2022-08-05T20:20:23.205Z,8.00
2022-08-05T20:22:52.930Z,15.80
2022-08-05T20:25:23.273Z,16.20
2022-08-05T20:27:52.536Z,13.60
2022-08-05T20:30:21.936Z,12.80
2022-08-05T20:32:52.792Z,15.40
2022-08-05T20:35:21.963Z,16.60
2022-08-05T20:38:05.785Z,16.60
2022-08-05T20:40:22.127Z,16.60
2022-08-05T20:42:51.282Z,16.00
2022-08-05T20:45:21.321Z,13.00
2022-08-05T20:47:52.078Z,13.40
2022-08-05T20:50:21.150Z,14.40
2022-08-05T20:52:52.535Z,17.60
2022-08-05T20:55:54.700Z,16.80
2022-08-05T20:57:53.252Z,14.80
2022-08-05T21:00:49.594Z,19.60
2022-08-05T21:02:59.124Z,19.80
2022-08-05T21:05:48.098Z,20.40
2022-08-05T21:08:00.799Z,19.00
2022-08-05T21:10:30.019Z,13.40
2022-08-05T21:13:10.278Z,16.60
2022-08-05T21:15:33.728Z,17.40
2022-08-05T21:18:01.190Z,18.40
2022-08-05T21:20:32.747Z,21.40
2022-08-05T21:23:01.203Z,19.60
2022-08-05T21:25:33.934Z,20.80
2022-08-05T21:28:03.712Z,19.20
2022-08-05T21:30:32.896Z,17.20
2022-08-05T21:33:02.219Z,18.60
2022-08-05T21:35:43.817Z,20.80
2022-08-05T21:38:04.171Z,20.20
2022-08-05T21:40:35.012Z,18.20
2022-08-05T21:43:05.570Z,18.00
2022-08-05T21:45:56.198Z,20.20
2022-08-05T21:48:08.055Z,19.60
2022-08-05T21:50:37.414Z,16.60
2022-08-05T21:53:17.405Z,18.20
2022-08-05T21:56:01.440Z,19.80
2022-08-05T21:58:11.671Z,17.20
2022-08-05T22:00:41.177Z,17.20
2022-08-05T22:03:13.455Z,19.80
2022-08-05T22:05:49.214Z,17.80
2022-08-05T22:08:22.177Z,17.80
2022-08-05T22:10:44.965Z,18.00
2022-08-05T22:14:18.209Z,17.40
2022-08-05T22:16:01.498Z,18.00
2022-08-05T22:18:19.514Z,17.20
2022-08-05T22:20:51.594Z,20.40
2022-08-05T22:24:03.272Z,14.80
2022-08-05T22:26:25.700Z,17.00
2022-08-05T22:28:55.878Z,17.00
2022-08-05T22:31:25.716Z,17.40
2022-08-05T22:34:00.751Z,16.80
2022-08-05T22:36:27.507Z,16.60
2022-08-05T22:38:58.141Z,16.40
2022-08-05T22:42:11.549Z,15.20
2022-08-05T22:43:59.738Z,15.80
2022-08-05T22:46:28.796Z,17.00
2022-08-05T22:48:59.235Z,15.80
2022-08-05T22:52:02.723Z,15.80
2022-08-05T22:53:59.792Z,19.20
2022-08-05T22:56:30.250Z,16.20
2022-08-05T22:59:04.181Z,16.20
2022-08-05T23:02:03.913Z,19.40
2022-08-05T23:04:03.581Z,16.40
2022-08-05T23:06:34.266Z,18.00
2022-08-05T23:09:27.194Z,17.60
2022-08-05T23:11:37.677Z,20.00
2022-08-05T23:14:08.529Z,21.00
2022-08-05T23:16:57.193Z,16.80
2022-08-05T23:19:28.003Z,17.80
2022-08-05T23:21:57.426Z,15.60
2022-08-05T23:24:27.650Z,15.60
2022-08-05T23:26:56.743Z,17.20
2022-08-05T23:29:26.739Z,16.00
2022-08-05T23:31:57.606Z,14.00
2022-08-05T23:34:26.952Z,15.00
2022-08-05T23:36:56.074Z,16.80
2022-08-05T23:39:44.358Z,18.60
2022-08-05T23:41:57.820Z,15.80
2022-08-05T23:44:31.061Z,19.60
2022-08-05T23:46:58.189Z,16.00
2022-08-05T23:49:33.896Z,16.20
2022-08-05T23:52:16.380Z,16.80
2022-08-05T23:54:47.248Z,19.20
2022-08-05T23:57:17.408Z,13.80
